sensor_id;sensor_type;location;lat;lon;timestamp;pressure;altitude;pressure_sealevel;temperature;humidity
71638;BME280;59485;43.542;-5.676;2022-09-09T00:09:29;101749.59;;;19.87;69.08
71638;BME280;59485;43.542;-5.676;2022-09-09T00:12:14;101748.75;;;19.86;69.29
71638;BME280;59485;43.542;-5.676;2022-09-09T00:14:52;101750.72;;;19.86;69.06
71638;BME280;59485;43.542;-5.676;2022-09-09T00:20:16;101741.97;;;19.82;69.34
71638;BME280;59485;43.542;-5.676;2022-09-09T00:22:53;101735.09;;;19.85;69.44
71638;BME280;59485;43.542;-5.676;2022-09-09T00:25:36;101740.03;;;19.83;69.53
71638;BME280;59485;43.542;-5.676;2022-09-09T00:28:15;101741.09;;;19.82;69.20
71638;BME280;59485;43.542;-5.676;2022-09-09T00:30:43;101724.06;;;19.72;69.59
71638;BME280;59485;43.542;-5.676;2022-09-09T00:33:13;101733.63;;;19.82;69.46
71638;BME280;59485;43.542;-5.676;2022-09-09T00:35:49;101726.13;;;19.83;69.50
71638;BME280;59485;43.542;-5.676;2022-09-09T00:40:52;101717.44;;;19.73;69.60
71638;BME280;59485;43.542;-5.676;2022-09-09T00:46:10;101740.09;;;19.76;69.54
71638;BME280;59485;43.542;-5.676;2022-09-09T00:49:11;101729.19;;;19.75;69.68
71638;BME280;59485;43.542;-5.676;2022-09-09T00:57:35;101732.88;;;19.69;68.96
71638;BME280;59485;43.542;-5.676;2022-09-09T01:00:18;101735.19;;;19.72;69.05
71638;BME280;59485;43.542;-5.676;2022-09-09T01:10:52;101739.75;;;19.66;67.72
71638;BME280;59485;43.542;-5.676;2022-09-09T01:13:28;101736.50;;;19.69;67.61
71638;BME280;59485;43.542;-5.676;2022-09-09T01:15:58;101727.22;;;19.57;67.23
71638;BME280;59485;43.542;-5.676;2022-09-09T01:18:29;101735.25;;;19.65;67.37
71638;BME280;59485;43.542;-5.676;2022-09-09T01:24:14;101742.06;;;19.69;67.29
71638;BME280;59485;43.542;-5.676;2022-09-09T01:26:45;101732.25;;;19.67;67.43
71638;BME280;59485;43.542;-5.676;2022-09-09T01:29:13;101742.53;;;19.66;67.47
71638;BME280;59485;43.542;-5.676;2022-09-09T01:34:17;101728.09;;;19.51;67.79
71638;BME280;59485;43.542;-5.676;2022-09-09T01:36:47;101736.44;;;19.51;67.91
71638;BME280;59485;43.542;-5.676;2022-09-09T01:39:16;101733.22;;;19.54;67.69
71638;BME280;59485;43.542;-5.676;2022-09-09T01:41:42;101734.91;;;19.55;67.77
71638;BME280;59485;43.542;-5.676;2022-09-09T01:44:08;101730.28;;;19.49;67.79
71638;BME280;59485;43.542;-5.676;2022-09-09T01:46:34;101711.06;;;19.34;67.84
71638;BME280;59485;43.542;-5.676;2022-09-09T01:49:00;101726.88;;;19.40;67.97
71638;BME280;59485;43.542;-5.676;2022-09-09T01:51:27;101725.56;;;19.50;67.50
71638;BME280;59485;43.542;-5.676;2022-09-09T01:53:53;101730.50;;;19.47;67.21
71638;BME280;59485;43.542;-5.676;2022-09-09T01:56:50;101731.50;;;19.53;67.35
71638;BME280;59485;43.542;-5.676;2022-09-09T02:02:01;101742.81;;;19.58;67.63
71638;BME280;59485;43.542;-5.676;2022-09-09T02:04:45;101739.56;;;19.61;67.40
71638;BME280;59485;43.542;-5.676;2022-09-09T02:10:08;101746.84;;;19.62;68.94
71638;BME280;59485;43.542;-5.676;2022-09-09T02:12:35;101747.06;;;19.61;68.10
71638;BME280;59485;43.542;-5.676;2022-09-09T02:15:07;101752.41;;;19.62;67.96
71638;BME280;59485;43.542;-5.676;2022-09-09T02:17:36;101754.38;;;19.55;67.85
71638;BME280;59485;43.542;-5.676;2022-09-09T02:20:10;101751.59;;;19.55;67.74
71638;BME280;59485;43.542;-5.676;2022-09-09T02:22:39;101756.75;;;19.52;67.57
71638;BME280;59485;43.542;-5.676;2022-09-09T02:25:08;101743.91;;;19.51;67.35
71638;BME280;59485;43.542;-5.676;2022-09-09T02:27:35;101751.16;;;19.58;67.38
71638;BME280;59485;43.542;-5.676;2022-09-09T02:30:02;101749.91;;;19.54;67.52
71638;BME280;59485;43.542;-5.676;2022-09-09T02:32:30;101741.13;;;19.51;66.99
71638;BME280;59485;43.542;-5.676;2022-09-09T02:35:02;101756.94;;;19.57;66.98
71638;BME280;59485;43.542;-5.676;2022-09-09T02:37:37;101769.38;;;19.54;67.38
71638;BME280;59485;43.542;-5.676;2022-09-09T02:40:08;101759.78;;;19.50;67.66
71638;BME280;59485;43.542;-5.676;2022-09-09T02:42:43;101753.13;;;19.51;67.31
71638;BME280;59485;43.542;-5.676;2022-09-09T02:45:11;101721.81;;;19.31;67.34
71638;BME280;59485;43.542;-5.676;2022-09-09T02:47:50;101745.44;;;19.46;67.91
71638;BME280;59485;43.542;-5.676;2022-09-09T02:50:35;101749.50;;;19.44;68.10
71638;BME280;59485;43.542;-5.676;2022-09-09T02:53:16;101746.72;;;19.44;67.79
71638;BME280;59485;43.542;-5.676;2022-09-09T02:55:47;101741.63;;;19.47;68.04
71638;BME280;59485;43.542;-5.676;2022-09-09T02:58:16;101744.41;;;19.47;67.98
71638;BME280;59485;43.542;-5.676;2022-09-09T03:00:45;101732.66;;;19.39;67.71
71638;BME280;59485;43.542;-5.676;2022-09-09T03:03:11;101758.06;;;19.49;67.51
71638;BME280;59485;43.542;-5.676;2022-09-09T03:05:37;101738.84;;;19.47;68.33
71638;BME280;59485;43.542;-5.676;2022-09-09T03:08:03;101750.97;;;19.53;68.01
71638;BME280;59485;43.542;-5.676;2022-09-09T03:10:31;101746.97;;;19.49;68.06
71638;BME280;59485;43.542;-5.676;2022-09-09T03:12:56;101737.31;;;19.45;67.73
71638;BME280;59485;43.542;-5.676;2022-09-09T03:15:22;101741.78;;;19.53;68.79
71638;BME280;59485;43.542;-5.676;2022-09-09T03:17:47;101740.31;;;19.50;68.72
71638;BME280;59485;43.542;-5.676;2022-09-09T03:20:13;101738.34;;;19.51;68.60
71638;BME280;59485;43.542;-5.676;2022-09-09T03:22:38;101743.25;;;19.55;68.49
71638;BME280;59485;43.542;-5.676;2022-09-09T03:25:05;101736.63;;;19.56;68.83
71638;BME280;59485;43.542;-5.676;2022-09-09T03:27:31;101739.84;;;19.53;68.50
71638;BME280;59485;43.542;-5.676;2022-09-09T03:29:56;101742.84;;;19.52;68.52
71638;BME280;59485;43.542;-5.676;2022-09-09T03:32:23;101736.91;;;19.48;68.54
71638;BME280;59485;43.542;-5.676;2022-09-09T03:34:49;101737.09;;;19.46;68.45
71638;BME280;59485;43.542;-5.676;2022-09-09T03:37:16;101739.88;;;19.46;68.39
71638;BME280;59485;43.542;-5.676;2022-09-09T03:39:42;101731.13;;;19.43;68.60
71638;BME280;59485;43.542;-5.676;2022-09-09T03:42:08;101737.94;;;19.47;68.60
71638;BME280;59485;43.542;-5.676;2022-09-09T03:44:34;101734.13;;;19.48;68.52
71638;BME280;59485;43.542;-5.676;2022-09-09T03:47:00;101721.53;;;19.39;68.60
71638;BME280;59485;43.542;-5.676;2022-09-09T03:49:26;101734.13;;;19.48;68.22
71638;BME280;59485;43.542;-5.676;2022-09-09T03:51:57;101736.06;;;19.47;67.99
71638;BME280;59485;43.542;-5.676;2022-09-09T03:54:25;101735.38;;;19.45;68.32
71638;BME280;59485;43.542;-5.676;2022-09-09T03:56:50;101725.19;;;19.39;68.53
71638;BME280;59485;43.542;-5.676;2022-09-09T03:59:16;101730.25;;;19.42;68.36
71638;BME280;59485;43.542;-5.676;2022-09-09T04:01:42;101727.91;;;19.46;68.30
71638;BME280;59485;43.542;-5.676;2022-09-09T04:04:08;101723.69;;;19.37;68.66
71638;BME280;59485;43.542;-5.676;2022-09-09T04:06:34;101732.19;;;19.42;68.70
71638;BME280;59485;43.542;-5.676;2022-09-09T04:09:01;101724.69;;;19.42;68.22
71638;BME280;59485;43.542;-5.676;2022-09-09T04:11:29;101726.19;;;19.45;68.38
71638;BME280;59485;43.542;-5.676;2022-09-09T04:13:54;101721.91;;;19.42;68.35
71638;BME280;59485;43.542;-5.676;2022-09-09T04:16:20;101728.13;;;19.44;68.48
71638;BME280;59485;43.542;-5.676;2022-09-09T04:18:46;101734.75;;;19.43;68.63
71638;BME280;59485;43.542;-5.676;2022-09-09T04:21:12;101726.41;;;19.43;68.29
71638;BME280;59485;43.542;-5.676;2022-09-09T04:23:38;101734.53;;;19.45;67.93
71638;BME280;59485;43.542;-5.676;2022-09-09T04:26:04;101723.84;;;19.42;68.00
71638;BME280;59485;43.542;-5.676;2022-09-09T04:28:33;101726.63;;;19.42;68.14
71638;BME280;59485;43.542;-5.676;2022-09-09T04:31:11;101728.34;;;19.43;68.41
71638;BME280;59485;43.542;-5.676;2022-09-09T04:33:40;101717.97;;;19.25;68.83
71638;BME280;59485;43.542;-5.676;2022-09-09T04:36:05;101712.19;;;19.27;68.75
71638;BME280;59485;43.542;-5.676;2022-09-09T04:38:31;101733.53;;;19.33;68.90
71638;BME280;59485;43.542;-5.676;2022-09-09T04:40:57;101730.44;;;19.23;68.82
71638;BME280;59485;43.542;-5.676;2022-09-09T04:43:22;101736.00;;;19.16;69.27
71638;BME280;59485;43.542;-5.676;2022-09-09T04:45:49;101727.91;;;19.15;69.28
71638;BME280;59485;43.542;-5.676;2022-09-09T04:48:15;101741.13;;;19.19;69.53
71638;BME280;59485;43.542;-5.676;2022-09-09T04:50:41;101733.66;;;19.20;69.74
71638;BME280;59485;43.542;-5.676;2022-09-09T04:53:07;101733.00;;;19.18;69.37
71638;BME280;59485;43.542;-5.676;2022-09-09T04:55:33;101735.75;;;19.24;69.47
71638;BME280;59485;43.542;-5.676;2022-09-09T04:58:04;101727.28;;;19.13;69.51
71638;BME280;59485;43.542;-5.676;2022-09-09T05:00:30;101733.13;;;19.04;69.27
71638;BME280;59485;43.542;-5.676;2022-09-09T05:02:56;101735.03;;;19.04;69.40
71638;BME280;59485;43.542;-5.676;2022-09-09T05:05:21;101744.81;;;19.13;69.16
71638;BME280;59485;43.542;-5.676;2022-09-09T05:07:47;101755.78;;;19.01;69.24
71638;BME280;59485;43.542;-5.676;2022-09-09T05:10:13;101749.59;;;18.99;69.29
71638;BME280;59485;43.542;-5.676;2022-09-09T05:12:41;101747.44;;;19.01;68.95
71638;BME280;59485;43.542;-5.676;2022-09-09T05:15:07;101757.66;;;19.07;68.87
71638;BME280;59485;43.542;-5.676;2022-09-09T05:17:32;101752.38;;;18.99;68.87
71638;BME280;59485;43.542;-5.676;2022-09-09T05:19:59;101751.94;;;19.02;68.67
71638;BME280;59485;43.542;-5.676;2022-09-09T05:22:24;101753.63;;;19.03;68.89
71638;BME280;59485;43.542;-5.676;2022-09-09T05:24:50;101739.75;;;18.97;68.82
71638;BME280;59485;43.542;-5.676;2022-09-09T05:27:18;101760.91;;;19.04;68.26
71638;BME280;59485;43.542;-5.676;2022-09-09T05:29:45;101754.50;;;19.04;68.67
71638;BME280;59485;43.542;-5.676;2022-09-09T05:32:11;101751.28;;;19.00;68.35
71638;BME280;59485;43.542;-5.676;2022-09-09T05:34:36;101738.28;;;18.94;68.44
71638;BME280;59485;43.542;-5.676;2022-09-09T05:37:03;101758.72;;;19.06;68.19
71638;BME280;59485;43.542;-5.676;2022-09-09T05:39:29;101765.56;;;19.10;68.14
71638;BME280;59485;43.542;-5.676;2022-09-09T05:41:55;101747.00;;;19.04;68.28
71638;BME280;59485;43.542;-5.676;2022-09-09T05:44:21;101763.41;;;19.13;67.74
71638;BME280;59485;43.542;-5.676;2022-09-09T05:46:48;101757.66;;;19.07;68.39
71638;BME280;59485;43.542;-5.676;2022-09-09T05:49:15;101761.72;;;19.11;68.63
71638;BME280;59485;43.542;-5.676;2022-09-09T05:51:40;101771.72;;;19.19;68.17
71638;BME280;59485;43.542;-5.676;2022-09-09T05:54:08;101765.94;;;19.21;68.14
71638;BME280;59485;43.542;-5.676;2022-09-09T05:56:33;101760.81;;;19.18;68.10
71638;BME280;59485;43.542;-5.676;2022-09-09T05:58:59;101769.09;;;19.24;68.01
71638;BME280;59485;43.542;-5.676;2022-09-09T06:01:30;101771.88;;;19.24;67.93
71638;BME280;59485;43.542;-5.676;2022-09-09T06:03:56;101760.81;;;19.18;68.16
71638;BME280;59485;43.542;-5.676;2022-09-09T06:06:24;101771.50;;;19.21;68.67
71638;BME280;59485;43.542;-5.676;2022-09-09T06:08:52;101781.72;;;19.27;68.54
71638;BME280;59485;43.542;-5.676;2022-09-09T06:11:24;101777.84;;;19.28;67.80
71638;BME280;59485;43.542;-5.676;2022-09-09T06:13:50;101768.88;;;19.26;67.78
71638;BME280;59485;43.542;-5.676;2022-09-09T06:16:24;101783.19;;;19.29;67.89
71638;BME280;59485;43.542;-5.676;2022-09-09T06:18:51;101780.00;;;19.26;67.57
71638;BME280;59485;43.542;-5.676;2022-09-09T06:21:23;101756.59;;;19.08;67.03
71638;BME280;59485;43.542;-5.676;2022-09-09T06:23:49;101772.41;;;19.15;67.01
71638;BME280;59485;43.542;-5.676;2022-09-09T06:26:24;101777.91;;;19.21;66.80
71638;BME280;59485;43.542;-5.676;2022-09-09T06:28:52;101787.97;;;19.22;66.77
71638;BME280;59485;43.542;-5.676;2022-09-09T06:31:21;101783.91;;;19.18;66.68
71638;BME280;59485;43.542;-5.676;2022-09-09T06:33:48;101781.34;;;19.17;66.94
71638;BME280;59485;43.542;-5.676;2022-09-09T06:36:34;101788.81;;;19.23;66.61
71638;BME280;59485;43.542;-5.676;2022-09-09T06:39:02;101793.09;;;19.19;66.53
71638;BME280;59485;43.542;-5.676;2022-09-09T06:41:30;101799.28;;;19.21;66.31
71638;BME280;59485;43.542;-5.676;2022-09-09T06:43:56;101781.13;;;19.18;67.21
71638;BME280;59485;43.542;-5.676;2022-09-09T06:46:25;101802.66;;;19.29;66.38
71638;BME280;59485;43.542;-5.676;2022-09-09T06:48:54;101803.94;;;19.27;66.40
71638;BME280;59485;43.542;-5.676;2022-09-09T06:51:22;101810.16;;;19.29;65.87
71638;BME280;59485;43.542;-5.676;2022-09-09T06:53:53;101801.38;;;19.25;66.57
71638;BME280;59485;43.542;-5.676;2022-09-09T06:56:22;101811.66;;;19.31;66.75
71638;BME280;59485;43.542;-5.676;2022-09-09T06:58:49;101809.47;;;19.33;67.25
71638;BME280;59485;43.542;-5.676;2022-09-09T07:01:17;101803.31;;;19.31;67.65
71638;BME280;59485;43.542;-5.676;2022-09-09T07:03:48;101799.66;;;19.31;68.28
71638;BME280;59485;43.542;-5.676;2022-09-09T07:06:20;101805.84;;;19.33;68.44
71638;BME280;59485;43.542;-5.676;2022-09-09T07:08:54;101808.88;;;19.31;68.69
71638;BME280;59485;43.542;-5.676;2022-09-09T07:11:21;101805.22;;;19.31;68.67
71638;BME280;59485;43.542;-5.676;2022-09-09T07:13:48;101819.94;;;19.38;68.32
71638;BME280;59485;43.542;-5.676;2022-09-09T07:16:18;101815.44;;;19.37;68.10
71638;BME280;59485;43.542;-5.676;2022-09-09T07:18:45;101822.72;;;19.38;68.77
71638;BME280;59485;43.542;-5.676;2022-09-09T07:21:15;101797.16;;;19.23;68.41
71638;BME280;59485;43.542;-5.676;2022-09-09T07:23:41;101800.97;;;19.28;68.68
71638;BME280;59485;43.542;-5.676;2022-09-09T07:26:12;101816.53;;;19.36;68.94
71638;BME280;59485;43.542;-5.676;2022-09-09T07:28:39;101808.63;;;19.33;69.10
71638;BME280;59485;43.542;-5.676;2022-09-09T07:31:07;101814.38;;;19.38;69.28
71638;BME280;59485;43.542;-5.676;2022-09-09T07:33:39;101821.66;;;19.39;69.86
71638;BME280;59485;43.542;-5.676;2022-09-09T07:36:07;101817.16;;;19.38;70.34
71638;BME280;59485;43.542;-5.676;2022-09-09T07:38:48;101817.59;;;19.35;70.59
71638;BME280;59485;43.542;-5.676;2022-09-09T07:41:24;101821.44;;;19.40;70.77
71638;BME280;59485;43.542;-5.676;2022-09-09T07:43:51;101811.16;;;19.41;70.67
71638;BME280;59485;43.542;-5.676;2022-09-09T07:46:20;101810.31;;;19.40;70.70
71638;BME280;59485;43.542;-5.676;2022-09-09T07:48:49;101821.59;;;19.45;70.56
71638;BME280;59485;43.542;-5.676;2022-09-09T07:51:30;101820.53;;;19.46;70.93
71638;BME280;59485;43.542;-5.676;2022-09-09T07:53:59;101828.69;;;19.48;70.95
71638;BME280;59485;43.542;-5.676;2022-09-09T07:56:26;101827.59;;;19.49;70.78
71638;BME280;59485;43.542;-5.676;2022-09-09T07:58:53;101802.81;;;19.41;70.64
71638;BME280;59485;43.542;-5.676;2022-09-09T08:01:30;101826.06;;;19.53;70.70
71638;BME280;59485;43.542;-5.676;2022-09-09T08:04:01;101828.19;;;19.58;70.40
71638;BME280;59485;43.542;-5.676;2022-09-09T08:06:28;101826.72;;;19.55;70.46
71638;BME280;59485;43.542;-5.676;2022-09-09T08:08:54;101820.25;;;19.61;70.62
71638;BME280;59485;43.542;-5.676;2022-09-09T08:11:22;101833.66;;;19.71;70.84
71638;BME280;59485;43.542;-5.676;2022-09-09T08:13:49;101834.44;;;19.78;70.57
71638;BME280;59485;43.542;-5.676;2022-09-09T08:16:18;101834.66;;;19.83;70.89
71638;BME280;59485;43.542;-5.676;2022-09-09T08:18:44;101831.63;;;19.84;71.06
71638;BME280;59485;43.542;-5.676;2022-09-09T08:21:23;101846.34;;;19.92;70.50
71638;BME280;59485;43.542;-5.676;2022-09-09T08:23:51;101836.72;;;19.94;69.87
71638;BME280;59485;43.542;-5.676;2022-09-09T08:26:20;101842.44;;;19.99;70.23
71638;BME280;59485;43.542;-5.676;2022-09-09T08:28:50;101839.38;;;20.07;67.73
71638;BME280;59485;43.542;-5.676;2022-09-09T08:31:23;101840.78;;;20.16;67.33
71638;BME280;59485;43.542;-5.676;2022-09-09T08:33:49;101838.41;;;20.20;67.82
71638;BME280;59485;43.542;-5.676;2022-09-09T08:36:19;101841.34;;;20.25;67.85
71638;BME280;59485;43.542;-5.676;2022-09-09T08:38:50;101842.97;;;20.33;67.61
71638;BME280;59485;43.542;-5.676;2022-09-09T08:44:02;101838.94;;;20.35;67.56
71638;BME280;59485;43.542;-5.676;2022-09-09T08:49:03;101849.56;;;20.45;66.77
71638;BME280;59485;43.542;-5.676;2022-09-09T08:51:32;101825.56;;;20.44;66.05
71638;BME280;59485;43.542;-5.676;2022-09-09T08:54:00;101831.91;;;20.51;65.60
71638;BME280;59485;43.542;-5.676;2022-09-09T08:56:27;101848.09;;;20.60;64.75
71638;BME280;59485;43.542;-5.676;2022-09-09T08:58:56;101839.38;;;20.57;63.85
71638;BME280;59485;43.542;-5.676;2022-09-09T09:06:50;101846.25;;;20.73;63.28
71638;BME280;59485;43.542;-5.676;2022-09-09T09:09:42;101851.28;;;20.82;62.88
71638;BME280;59485;43.542;-5.676;2022-09-09T09:12:19;101846.88;;;20.75;63.41
71638;BME280;59485;43.542;-5.676;2022-09-09T09:14:47;101862.97;;;20.73;62.61
71638;BME280;59485;43.542;-5.676;2022-09-09T09:17:15;101857.09;;;20.81;62.57
71638;BME280;59485;43.542;-5.676;2022-09-09T09:19:42;101853.75;;;20.72;62.49
71638;BME280;59485;43.542;-5.676;2022-09-09T09:25:16;101871.41;;;20.66;62.04
71638;BME280;59485;43.542;-5.676;2022-09-09T09:28:07;101884.31;;;20.60;61.61
71638;BME280;59485;43.542;-5.676;2022-09-09T09:30:42;101882.38;;;20.61;62.47
71638;BME280;59485;43.542;-5.676;2022-09-09T09:35:45;101889.59;;;20.69;62.81
71638;BME280;59485;43.542;-5.676;2022-09-09T09:38:24;101881.84;;;20.71;62.30
71638;BME280;59485;43.542;-5.676;2022-09-09T09:40:53;101883.97;;;20.75;62.32
71638;BME280;59485;43.542;-5.676;2022-09-09T09:43:34;101868.78;;;20.71;62.51
71638;BME280;59485;43.542;-5.676;2022-09-09T09:46:03;101888.06;;;20.73;63.11
71638;BME280;59485;43.542;-5.676;2022-09-09T09:48:29;101887.53;;;20.82;62.34
71638;BME280;59485;43.542;-5.676;2022-09-09T09:51:08;101891.00;;;20.78;61.24
71638;BME280;59485;43.542;-5.676;2022-09-09T09:53:36;101898.59;;;20.89;61.46
71638;BME280;59485;43.542;-5.676;2022-09-09T09:56:05;101899.44;;;20.89;59.70
71638;BME280;59485;43.542;-5.676;2022-09-09T10:01:30;101885.44;;;21.14;60.96
71638;BME280;59485;43.542;-5.676;2022-09-09T10:04:20;101880.91;;;21.20;60.14
71638;BME280;59485;43.542;-5.676;2022-09-09T10:06:48;101896.28;;;21.22;60.24
71638;BME280;59485;43.542;-5.676;2022-09-09T10:09:26;101899.16;;;21.34;60.07
71638;BME280;59485;43.542;-5.676;2022-09-09T10:12:48;101892.28;;;21.37;58.90
71638;BME280;59485;43.542;-5.676;2022-09-09T10:23:29;101900.06;;;21.64;58.22
71638;BME280;59485;43.542;-5.676;2022-09-09T10:26:16;101889.97;;;21.63;57.99
71638;BME280;59485;43.542;-5.676;2022-09-09T10:31:39;101895.84;;;21.74;54.70
71638;BME280;59485;43.542;-5.676;2022-09-09T10:36:53;101900.22;;;21.81;53.83
71638;BME280;59485;43.542;-5.676;2022-09-09T10:39:38;101902.16;;;21.81;54.23
71638;BME280;59485;43.542;-5.676;2022-09-09T10:42:15;101895.25;;;21.83;54.85
71638;BME280;59485;43.542;-5.676;2022-09-09T10:47:28;101892.72;;;21.93;53.34
71638;BME280;59485;43.542;-5.676;2022-09-09T10:50:28;101892.13;;;21.91;53.93
71638;BME280;59485;43.542;-5.676;2022-09-09T10:53:00;101898.66;;;21.85;53.78
71638;BME280;59485;43.542;-5.676;2022-09-09T10:55:44;101899.28;;;21.87;54.56
71638;BME280;59485;43.542;-5.676;2022-09-09T10:58:19;101881.53;;;21.82;56.20
71638;BME280;59485;43.542;-5.676;2022-09-09T11:00:55;101897.00;;;21.96;57.39
71638;BME280;59485;43.542;-5.676;2022-09-09T11:03:28;101896.88;;;21.91;55.87
71638;BME280;59485;43.542;-5.676;2022-09-09T11:06:03;101898.75;;;21.79;59.21
71638;BME280;59485;43.542;-5.676;2022-09-09T11:08:33;101894.06;;;21.61;59.65
71638;BME280;59485;43.542;-5.676;2022-09-09T11:11:06;101895.16;;;21.60;58.83
71638;BME280;59485;43.542;-5.676;2022-09-09T11:19:19;101874.84;;;21.23;61.52
71638;BME280;59485;43.542;-5.676;2022-09-09T11:21:46;101889.53;;;21.30;60.36
71638;BME280;59485;43.542;-5.676;2022-09-09T11:24:22;101909.69;;;21.32;61.99
71638;BME280;59485;43.542;-5.676;2022-09-09T11:27:17;101899.25;;;21.27;64.25
71638;BME280;59485;43.542;-5.676;2022-09-09T11:40:43;101892.50;;;21.35;61.87
71638;BME280;59485;43.542;-5.676;2022-09-09T11:45:39;101900.66;;;21.37;63.34
71638;BME280;59485;43.542;-5.676;2022-09-09T11:48:43;101898.44;;;21.39;59.48
71638;BME280;59485;43.542;-5.676;2022-09-09T11:51:27;101883.69;;;21.38;63.12
71638;BME280;59485;43.542;-5.676;2022-09-09T11:54:02;101891.47;;;21.48;63.09
71638;BME280;59485;43.542;-5.676;2022-09-09T11:56:42;101895.38;;;21.47;59.71
71638;BME280;59485;43.542;-5.676;2022-09-09T11:59:24;101881.63;;;21.45;61.67
71638;BME280;59485;43.542;-5.676;2022-09-09T12:04:40;101897.53;;;21.45;59.90
71638;BME280;59485;43.542;-5.676;2022-09-09T12:09:43;101900.41;;;21.38;62.06
71638;BME280;59485;43.542;-5.676;2022-09-09T12:17:43;101907.59;;;21.46;58.89
71638;BME280;59485;43.542;-5.676;2022-09-09T12:20:22;101907.94;;;21.38;63.46
71638;BME280;59485;43.542;-5.676;2022-09-09T12:33:37;101900.31;;;21.45;64.18
71638;BME280;59485;43.542;-5.676;2022-09-09T12:36:09;101906.31;;;21.60;64.40
71638;BME280;59485;43.542;-5.676;2022-09-09T12:38:40;101914.41;;;21.50;64.75
71638;BME280;59485;43.542;-5.676;2022-09-09T12:41:15;101912.34;;;21.45;65.69
71638;BME280;59485;43.542;-5.676;2022-09-09T12:43:44;101907.66;;;21.39;64.25
71638;BME280;59485;43.542;-5.676;2022-09-09T12:46:20;101910.00;;;21.42;64.86
71638;BME280;59485;43.542;-5.676;2022-09-09T12:48:48;101890.41;;;21.30;64.77
71638;BME280;59485;43.542;-5.676;2022-09-09T12:53:51;101898.44;;;21.39;64.25
71638;BME280;59485;43.542;-5.676;2022-09-09T12:56:22;101902.25;;;21.44;63.66
71638;BME280;59485;43.542;-5.676;2022-09-09T12:58:51;101906.78;;;21.57;65.21
71638;BME280;59485;43.542;-5.676;2022-09-09T13:03:50;101885.75;;;21.73;63.86
71638;BME280;59485;43.542;-5.676;2022-09-09T13:08:48;101903.09;;;21.75;63.55
71638;BME280;59485;43.542;-5.676;2022-09-09T13:11:18;101904.25;;;21.85;64.00
71638;BME280;59485;43.542;-5.676;2022-09-09T13:13:51;101902.16;;;21.81;63.69
71638;BME280;59485;43.542;-5.676;2022-09-09T13:16:29;101904.25;;;21.85;64.43
71638;BME280;59485;43.542;-5.676;2022-09-09T13:19:07;101903.31;;;21.91;65.15
71638;BME280;59485;43.542;-5.676;2022-09-09T13:21:36;101900.00;;;21.83;65.70
71638;BME280;59485;43.542;-5.676;2022-09-09T13:24:04;101896.38;;;21.94;65.50
71638;BME280;59485;43.542;-5.676;2022-09-09T13:26:33;101896.31;;;22.00;65.84
71638;BME280;59485;43.542;-5.676;2022-09-09T13:29:29;101873.97;;;22.00;65.59
71638;BME280;59485;43.542;-5.676;2022-09-09T13:32:15;101889.03;;;21.99;62.34
71638;BME280;59485;43.542;-5.676;2022-09-09T13:34:53;101893.34;;;21.95;62.91
71638;BME280;59485;43.542;-5.676;2022-09-09T13:37:37;101898.00;;;22.01;63.05
71638;BME280;59485;43.542;-5.676;2022-09-09T13:40:05;101883.72;;;22.10;63.43
71638;BME280;59485;43.542;-5.676;2022-09-09T13:42:34;101893.91;;;22.16;63.01
71638;BME280;59485;43.542;-5.676;2022-09-09T13:45:03;101897.06;;;22.07;62.99
71638;BME280;59485;43.542;-5.676;2022-09-09T13:47:33;101892.19;;;22.03;64.15
71638;BME280;59485;43.542;-5.676;2022-09-09T13:52:47;101904.09;;;22.10;62.57
71638;BME280;59485;43.542;-5.676;2022-09-09T13:55:12;101892.59;;;22.30;61.44
71638;BME280;59485;43.542;-5.676;2022-09-09T13:57:38;101881.06;;;22.38;61.94
71638;BME280;59485;43.542;-5.676;2022-09-09T14:00:04;101880.94;;;22.33;61.23
71638;BME280;59485;43.542;-5.676;2022-09-09T14:02:31;101884.63;;;22.45;62.23
71638;BME280;59485;43.542;-5.676;2022-09-09T14:04:56;101886.69;;;22.61;61.54
71638;BME280;59485;43.542;-5.676;2022-09-09T14:07:22;101885.94;;;22.66;61.24
71638;BME280;59485;43.542;-5.676;2022-09-09T14:09:47;101894.22;;;22.61;60.05
71638;BME280;59485;43.542;-5.676;2022-09-09T14:12:16;101888.97;;;22.64;60.70
71638;BME280;59485;43.542;-5.676;2022-09-09T14:14:42;101882.78;;;22.62;59.73
71638;BME280;59485;43.542;-5.676;2022-09-09T14:17:08;101884.34;;;22.58;59.84
71638;BME280;59485;43.542;-5.676;2022-09-09T14:19:34;101879.25;;;22.55;59.82
71638;BME280;59485;43.542;-5.676;2022-09-09T14:22:00;101879.84;;;22.57;60.32
71638;BME280;59485;43.542;-5.676;2022-09-09T14:24:26;101876.97;;;22.52;60.30
71638;BME280;59485;43.542;-5.676;2022-09-09T14:26:53;101870.16;;;22.60;60.80
71638;BME280;59485;43.542;-5.676;2022-09-09T14:29:18;101878.53;;;22.83;60.32
71638;BME280;59485;43.542;-5.676;2022-09-09T14:31:44;101881.94;;;22.85;60.83
71638;BME280;59485;43.542;-5.676;2022-09-09T14:34:09;101871.38;;;22.75;60.08
71638;BME280;59485;43.542;-5.676;2022-09-09T14:36:37;101884.41;;;22.81;61.36
71638;BME280;59485;43.542;-5.676;2022-09-09T14:39:04;101875.50;;;22.85;60.07
71638;BME280;59485;43.542;-5.676;2022-09-09T14:41:30;101874.31;;;22.80;58.26
71638;BME280;59485;43.542;-5.676;2022-09-09T14:43:55;101865.78;;;22.75;59.40
71638;BME280;59485;43.542;-5.676;2022-09-09T14:46:21;101872.09;;;22.82;60.17
71638;BME280;59485;43.542;-5.676;2022-09-09T14:48:50;101878.28;;;22.85;60.57
71638;BME280;59485;43.542;-5.676;2022-09-09T14:51:21;101873.78;;;22.83;60.24
71638;BME280;59485;43.542;-5.676;2022-09-09T14:53:53;101868.91;;;22.91;58.42
71638;BME280;59485;43.542;-5.676;2022-09-09T14:56:21;101871.13;;;22.89;57.96
71638;BME280;59485;43.542;-5.676;2022-09-09T14:58:49;101864.31;;;22.85;58.26
71638;BME280;59485;43.542;-5.676;2022-09-09T15:01:16;101844.03;;;22.77;58.06
71638;BME280;59485;43.542;-5.676;2022-09-09T15:03:49;101856.44;;;22.81;58.31
71638;BME280;59485;43.542;-5.676;2022-09-09T15:06:15;101852.13;;;22.91;57.49